sensor_id;sensor_type;location;lat;lon;timestamp;P1;durP1;ratioP1;P2;durP2;ratioP2
31298;SDS011;17927;52.350;13.402;2023-12-14T00:02:19;9.27;;;6.88;;
31298;SDS011;17927;52.350;13.402;2023-12-14T00:04:44;11.57;;;7.40;;
31298;SDS011;17927;52.350;13.402;2023-12-14T00:07:09;9.63;;;6.78;;
31298;SDS011;17927;52.350;13.402;2023-12-14T00:09:35;8.20;;;6.65;;
31298;SDS011;17927;52.350;13.402;2023-12-14T00:12:01;9.70;;;6.10;;
31298;SDS011;17927;52.350;13.402;2023-12-14T00:14:26;7.75;;;6.38;;
31298;SDS011;17927;52.350;13.402;2023-12-14T00:16:51;9.75;;;6.05;;
31298;SDS011;17927;52.350;13.402;2023-12-14T00:19:17;7.72;;;6.07;;
31298;SDS011;17927;52.350;13.402;2023-12-14T00:21:43;6.45;;;5.78;;
31298;SDS011;17927;52.350;13.402;2023-12-14T00:24:08;8.85;;;6.28;;
31298;SDS011;17927;52.350;13.402;2023-12-14T00:26:34;9.80;;;7.15;;
31298;SDS011;17927;52.350;13.402;2023-12-14T00:28:59;9.68;;;6.40;;
31298;SDS011;17927;52.350;13.402;2023-12-14T00:31:24;8.10;;;5.95;;
31298;SDS011;17927;52.350;13.402;2023-12-14T00:33:50;9.02;;;6.28;;
31298;SDS011;17927;52.350;13.402;2023-12-14T00:36:18;6.13;;;5.53;;
31298;SDS011;17927;52.350;13.402;2023-12-14T00:38:44;8.80;;;6.80;;
31298;SDS011;17927;52.350;13.402;2023-12-14T00:41:09;8.23;;;6.68;;
31298;SDS011;17927;52.350;13.402;2023-12-14T00:43:34;8.82;;;6.60;;
31298;SDS011;17927;52.350;13.402;2023-12-14T00:46:01;9.55;;;6.97;;
31298;SDS011;17927;52.350;13.402;2023-12-14T00:48:26;8.07;;;6.80;;
31298;SDS011;17927;52.350;13.402;2023-12-14T00:50:51;8.73;;;7.07;;
31298;SDS011;17927;52.350;13.402;2023-12-14T00:53:17;9.07;;;7.00;;
31298;SDS011;17927;52.350;13.402;2023-12-14T00:55:42;11.13;;;7.75;;
31298;SDS011;17927;52.350;13.402;2023-12-14T00:58:07;8.52;;;7.07;;
31298;SDS011;17927;52.350;13.402;2023-12-14T01:00:32;8.48;;;7.13;;
31298;SDS011;17927;52.350;13.402;2023-12-14T01:02:58;10.45;;;7.45;;
31298;SDS011;17927;52.350;13.402;2023-12-14T01:05:23;10.13;;;7.78;;
31298;SDS011;17927;52.350;13.402;2023-12-14T01:07:48;11.15;;;8.23;;
31298;SDS011;17927;52.350;13.402;2023-12-14T01:10:13;10.15;;;7.30;;
31298;SDS011;17927;52.350;13.402;2023-12-14T01:12:39;12.23;;;7.78;;
31298;SDS011;17927;52.350;13.402;2023-12-14T01:15:04;12.68;;;8.23;;
31298;SDS011;17927;52.350;13.402;2023-12-14T01:17:30;11.77;;;8.32;;
31298;SDS011;17927;52.350;13.402;2023-12-14T01:19:55;10.95;;;7.85;;
31298;SDS011;17927;52.350;13.402;2023-12-14T01:22:20;10.30;;;8.15;;
31298;SDS011;17927;52.350;13.402;2023-12-14T01:24:46;16.05;;;9.70;;
31298;SDS011;17927;52.350;13.402;2023-12-14T01:27:11;14.63;;;8.65;;
31298;SDS011;17927;52.350;13.402;2023-12-14T01:29:38;14.27;;;8.60;;
31298;SDS011;17927;52.350;13.402;2023-12-14T01:32:04;18.20;;;9.77;;
31298;SDS011;17927;52.350;13.402;2023-12-14T01:34:29;13.73;;;9.20;;
31298;SDS011;17927;52.350;13.402;2023-12-14T01:36:54;14.13;;;9.30;;
31298;SDS011;17927;52.350;13.402;2023-12-14T01:39:20;13.73;;;9.18;;
31298;SDS011;17927;52.350;13.402;2023-12-14T01:41:45;12.07;;;8.20;;
31298;SDS011;17927;52.350;13.402;2023-12-14T01:44:10;15.27;;;9.40;;
31298;SDS011;17927;52.350;13.402;2023-12-14T01:46:35;12.82;;;8.48;;
31298;SDS011;17927;52.350;13.402;2023-12-14T01:49:01;15.43;;;9.70;;
31298;SDS011;17927;52.350;13.402;2023-12-14T01:51:26;14.77;;;9.55;;
31298;SDS011;17927;52.350;13.402;2023-12-14T01:53:51;13.57;;;8.77;;
31298;SDS011;17927;52.350;13.402;2023-12-14T01:56:16;13.13;;;9.02;;
31298;SDS011;17927;52.350;13.402;2023-12-14T01:58:42;14.35;;;9.43;;
31298;SDS011;17927;52.350;13.402;2023-12-14T02:01:24;13.88;;;9.40;;
31298;SDS011;17927;52.350;13.402;2023-12-14T02:03:59;12.82;;;8.20;;
31298;SDS011;17927;52.350;13.402;2023-12-14T02:06:25;14.40;;;8.45;;
31298;SDS011;17927;52.350;13.402;2023-12-14T02:08:50;13.10;;;8.27;;
31298;SDS011;17927;52.350;13.402;2023-12-14T02:11:15;10.32;;;7.57;;
31298;SDS011;17927;52.350;13.402;2023-12-14T02:13:41;10.43;;;6.85;;
31298;SDS011;17927;52.350;13.402;2023-12-14T02:16:06;11.07;;;7.53;;
31298;SDS011;17927;52.350;13.402;2023-12-14T02:18:31;10.77;;;6.78;;
31298;SDS011;17927;52.350;13.402;2023-12-14T02:20:56;7.70;;;6.40;;
31298;SDS011;17927;52.350;13.402;2023-12-14T02:23:22;8.43;;;6.32;;
31298;SDS011;17927;52.350;13.402;2023-12-14T02:25:47;10.10;;;6.15;;
31298;SDS011;17927;52.350;13.402;2023-12-14T02:28:12;9.68;;;6.82;;
31298;SDS011;17927;52.350;13.402;2023-12-14T02:30:37;12.90;;;7.20;;
31298;SDS011;17927;52.350;13.402;2023-12-14T02:33:03;9.75;;;6.68;;
31298;SDS011;17927;52.350;13.402;2023-12-14T02:35:28;9.27;;;6.90;;
31298;SDS011;17927;52.350;13.402;2023-12-14T02:37:53;9.35;;;6.65;;
31298;SDS011;17927;52.350;13.402;2023-12-14T02:40:18;9.10;;;6.25;;
31298;SDS011;17927;52.350;13.402;2023-12-14T02:42:44;9.32;;;6.70;;
31298;SDS011;17927;52.350;13.402;2023-12-14T02:45:09;8.23;;;6.40;;
31298;SDS011;17927;52.350;13.402;2023-12-14T02:47:34;8.77;;;6.32;;
31298;SDS011;17927;52.350;13.402;2023-12-14T02:50:00;7.03;;;5.93;;
31298;SDS011;17927;52.350;13.402;2023-12-14T02:52:25;7.03;;;5.97;;
31298;SDS011;17927;52.350;13.402;2023-12-14T02:54:50;8.02;;;6.57;;
31298;SDS011;17927;52.350;13.402;2023-12-14T02:57:16;7.75;;;5.97;;
31298;SDS011;17927;52.350;13.402;2023-12-14T02:59:41;7.22;;;5.90;;
31298;SDS011;17927;52.350;13.402;2023-12-14T03:02:06;8.23;;;5.78;;
31298;SDS011;17927;52.350;13.402;2023-12-14T03:04:32;7.18;;;5.68;;
31298;SDS011;17927;52.350;13.402;2023-12-14T03:06:57;8.15;;;5.63;;
31298;SDS011;17927;52.350;13.402;2023-12-14T03:09:27;7.43;;;6.10;;
31298;SDS011;17927;52.350;13.402;2023-12-14T03:11:52;7.68;;;5.65;;
31298;SDS011;17927;52.350;13.402;2023-12-14T03:14:17;9.10;;;5.20;;
31298;SDS011;17927;52.350;13.402;2023-12-14T03:16:42;6.63;;;5.53;;
31298;SDS011;17927;52.350;13.402;2023-12-14T03:19:08;8.80;;;6.45;;
31298;SDS011;17927;52.350;13.402;2023-12-14T03:21:33;5.97;;;5.38;;
31298;SDS011;17927;52.350;13.402;2023-12-14T03:23:58;6.55;;;5.40;;
31298;SDS011;17927;52.350;13.402;2023-12-14T03:26:23;7.72;;;5.43;;
31298;SDS011;17927;52.350;13.402;2023-12-14T03:28:49;6.65;;;5.68;;
31298;SDS011;17927;52.350;13.402;2023-12-14T03:31:14;5.88;;;5.10;;
31298;SDS011;17927;52.350;13.402;2023-12-14T03:33:39;6.32;;;5.32;;
31298;SDS011;17927;52.350;13.402;2023-12-14T03:36:05;5.88;;;4.78;;
31298;SDS011;17927;52.350;13.402;2023-12-14T03:38:31;5.60;;;5.05;;
31298;SDS011;17927;52.350;13.402;2023-12-14T03:40:56;8.07;;;5.57;;
31298;SDS011;17927;52.350;13.402;2023-12-14T03:43:22;6.10;;;5.05;;
31298;SDS011;17927;52.350;13.402;2023-12-14T03:45:47;6.72;;;5.28;;
31298;SDS011;17927;52.350;13.402;2023-12-14T03:48:12;6.00;;;4.63;;
31298;SDS011;17927;52.350;13.402;2023-12-14T03:50:38;7.85;;;5.50;;
31298;SDS011;17927;52.350;13.402;2023-12-14T03:53:03;7.70;;;5.80;;
31298;SDS011;17927;52.350;13.402;2023-12-14T03:55:28;7.07;;;5.65;;
31298;SDS011;17927;52.350;13.402;2023-12-14T03:57:53;9.32;;;6.25;;
31298;SDS011;17927;52.350;13.402;2023-12-14T04:00:19;8.20;;;6.15;;
31298;SDS011;17927;52.350;13.402;2023-12-14T04:02:44;7.40;;;5.50;;
31298;SDS011;17927;52.350;13.402;2023-12-14T04:05:09;8.48;;;5.78;;
31298;SDS011;17927;52.350;13.402;2023-12-14T04:07:38;7.47;;;6.10;;
31298;SDS011;17927;52.350;13.402;2023-12-14T04:10:14;9.13;;;6.40;;
31298;SDS011;17927;52.350;13.402;2023-12-14T04:12:39;8.00;;;5.75;;
31298;SDS011;17927;52.350;13.402;2023-12-14T04:15:06;8.95;;;7.18;;
31298;SDS011;17927;52.350;13.402;2023-12-14T04:17:32;12.82;;;6.50;;
31298;SDS011;17927;52.350;13.402;2023-12-14T04:19:58;11.43;;;7.05;;
31298;SDS011;17927;52.350;13.402;2023-12-14T04:22:23;10.85;;;7.03;;
31298;SDS011;17927;52.350;13.402;2023-12-14T04:24:49;8.52;;;6.25;;
31298;SDS011;17927;52.350;13.402;2023-12-14T04:27:15;9.82;;;7.03;;
31298;SDS011;17927;52.350;13.402;2023-12-14T04:29:41;8.77;;;7.20;;
31298;SDS011;17927;52.350;13.402;2023-12-14T04:32:06;10.57;;;7.05;;
31298;SDS011;17927;52.350;13.402;2023-12-14T04:34:31;10.30;;;6.90;;
31298;SDS011;17927;52.350;13.402;2023-12-14T04:36:56;8.60;;;5.78;;
31298;SDS011;17927;52.350;13.402;2023-12-14T04:39:23;8.45;;;6.45;;
31298;SDS011;17927;52.350;13.402;2023-12-14T04:41:49;9.00;;;6.97;;
31298;SDS011;17927;52.350;13.402;2023-12-14T04:44:15;10.73;;;6.07;;
31298;SDS011;17927;52.350;13.402;2023-12-14T04:46:40;13.68;;;7.13;;
31298;SDS011;17927;52.350;13.402;2023-12-14T04:49:05;9.82;;;7.15;;
31298;SDS011;17927;52.350;13.402;2023-12-14T04:51:30;10.68;;;6.82;;
31298;SDS011;17927;52.350;13.402;2023-12-14T04:53:57;8.55;;;6.20;;
31298;SDS011;17927;52.350;13.402;2023-12-14T04:56:22;9.63;;;6.85;;
31298;SDS011;17927;52.350;13.402;2023-12-14T04:58:47;9.73;;;7.32;;
31298;SDS011;17927;52.350;13.402;2023-12-14T05:01:12;12.75;;;6.90;;
31298;SDS011;17927;52.350;13.402;2023-12-14T05:03:38;7.75;;;6.15;;
31298;SDS011;17927;52.350;13.402;2023-12-14T05:06:03;8.20;;;5.60;;
31298;SDS011;17927;52.350;13.402;2023-12-14T05:08:28;9.65;;;6.22;;
31298;SDS011;17927;52.350;13.402;2023-12-14T05:10:54;8.35;;;5.78;;
31298;SDS011;17927;52.350;13.402;2023-12-14T05:13:19;8.35;;;5.53;;
31298;SDS011;17927;52.350;13.402;2023-12-14T05:15:44;7.70;;;5.25;;
31298;SDS011;17927;52.350;13.402;2023-12-14T05:18:09;11.10;;;5.95;;
31298;SDS011;17927;52.350;13.402;2023-12-14T05:20:35;7.32;;;6.03;;
31298;SDS011;17927;52.350;13.402;2023-12-14T05:23:00;7.90;;;5.82;;
31298;SDS011;17927;52.350;13.402;2023-12-14T05:25:26;6.63;;;5.85;;
31298;SDS011;17927;52.350;13.402;2023-12-14T05:27:51;6.93;;;4.85;;
31298;SDS011;17927;52.350;13.402;2023-12-14T05:30:16;8.00;;;4.97;;
31298;SDS011;17927;52.350;13.402;2023-12-14T05:32:42;7.38;;;4.72;;
31298;SDS011;17927;52.350;13.402;2023-12-14T05:35:08;5.50;;;4.68;;
31298;SDS011;17927;52.350;13.402;2023-12-14T05:37:34;5.60;;;4.55;;
31298;SDS011;17927;52.350;13.402;2023-12-14T05:40:01;8.40;;;5.65;;
31298;SDS011;17927;52.350;13.402;2023-12-14T05:42:27;9.55;;;5.40;;
31298;SDS011;17927;52.350;13.402;2023-12-14T05:44:52;6.93;;;5.60;;
31298;SDS011;17927;52.350;13.402;2023-12-14T05:47:18;7.50;;;6.22;;
31298;SDS011;17927;52.350;13.402;2023-12-14T05:49:43;12.80;;;7.82;;
31298;SDS011;17927;52.350;13.402;2023-12-14T05:52:08;9.70;;;6.28;;
31298;SDS011;17927;52.350;13.402;2023-12-14T05:54:35;10.60;;;7.32;;
31298;SDS011;17927;52.350;13.402;2023-12-14T05:57:01;9.52;;;6.05;;
31298;SDS011;17927;52.350;13.402;2023-12-14T05:59:27;5.85;;;4.95;;
31298;SDS011;17927;52.350;13.402;2023-12-14T06:01:56;14.60;;;9.98;;
31298;SDS011;17927;52.350;13.402;2023-12-14T06:04:25;15.15;;;9.75;;
31298;SDS011;17927;52.350;13.402;2023-12-14T06:06:51;13.82;;;9.00;;
31298;SDS011;17927;52.350;13.402;2023-12-14T06:09:16;9.52;;;7.70;;
31298;SDS011;17927;52.350;13.402;2023-12-14T06:11:44;11.80;;;8.23;;
31298;SDS011;17927;52.350;13.402;2023-12-14T06:14:09;8.18;;;6.20;;
31298;SDS011;17927;52.350;13.402;2023-12-14T06:16:34;9.10;;;6.70;;
31298;SDS011;17927;52.350;13.402;2023-12-14T06:19:00;8.27;;;5.82;;
31298;SDS011;17927;52.350;13.402;2023-12-14T06:21:25;7.30;;;5.57;;
31298;SDS011;17927;52.350;13.402;2023-12-14T06:23:53;7.15;;;4.72;;
31298;SDS011;17927;52.350;13.402;2023-12-14T06:26:19;9.02;;;4.97;;
31298;SDS011;17927;52.350;13.402;2023-12-14T06:28:44;4.80;;;4.38;;
31298;SDS011;17927;52.350;13.402;2023-12-14T06:31:13;5.93;;;4.82;;
31298;SDS011;17927;52.350;13.402;2023-12-14T06:33:39;4.72;;;4.38;;
31298;SDS011;17927;52.350;13.402;2023-12-14T06:36:04;6.30;;;4.40;;
31298;SDS011;17927;52.350;13.402;2023-12-14T06:38:30;4.97;;;4.50;;
31298;SDS011;17927;52.350;13.402;2023-12-14T06:40:56;5.53;;;4.97;;
31298;SDS011;17927;52.350;13.402;2023-12-14T06:43:21;5.15;;;4.68;;
31298;SDS011;17927;52.350;13.402;2023-12-14T06:45:46;5.00;;;4.50;;
31298;SDS011;17927;52.350;13.402;2023-12-14T06:48:12;8.90;;;4.55;;
31298;SDS011;17927;52.350;13.402;2023-12-14T06:50:37;4.38;;;3.97;;
31298;SDS011;17927;52.350;13.402;2023-12-14T06:53:02;5.88;;;4.88;;
31298;SDS011;17927;52.350;13.402;2023-12-14T06:55:28;5.28;;;4.75;;
31298;SDS011;17927;52.350;13.402;2023-12-14T06:57:53;5.70;;;4.70;;
31298;SDS011;17927;52.350;13.402;2023-12-14T07:00:18;4.97;;;4.47;;
31298;SDS011;17927;52.350;13.402;2023-12-14T07:02:44;4.90;;;4.43;;
31298;SDS011;17927;52.350;13.402;2023-12-14T07:05:09;4.63;;;4.20;;
31298;SDS011;17927;52.350;13.402;2023-12-14T07:07:34;6.15;;;4.70;;
31298;SDS011;17927;52.350;13.402;2023-12-14T07:10:00;6.97;;;5.20;;
31298;SDS011;17927;52.350;13.402;2023-12-14T07:12:25;6.55;;;4.78;;
31298;SDS011;17927;52.350;13.402;2023-12-14T07:14:50;5.38;;;4.82;;
31298;SDS011;17927;52.350;13.402;2023-12-14T07:17:15;5.80;;;4.88;;
31298;SDS011;17927;52.350;13.402;2023-12-14T07:19:41;6.65;;;4.50;;
31298;SDS011;17927;52.350;13.402;2023-12-14T07:22:06;8.02;;;5.05;;
31298;SDS011;17927;52.350;13.402;2023-12-14T07:24:31;7.05;;;5.47;;
31298;SDS011;17927;52.350;13.402;2023-12-14T07:26:56;5.00;;;4.50;;
31298;SDS011;17927;52.350;13.402;2023-12-14T07:29:22;4.40;;;4.00;;
31298;SDS011;17927;52.350;13.402;2023-12-14T07:31:47;4.97;;;4.63;;
31298;SDS011;17927;52.350;13.402;2023-12-14T07:34:12;5.18;;;4.43;;
31298;SDS011;17927;52.350;13.402;2023-12-14T07:36:37;5.03;;;4.55;;
31298;SDS011;17927;52.350;13.402;2023-12-14T07:39:03;4.90;;;4.45;;
31298;SDS011;17927;52.350;13.402;2023-12-14T07:41:28;5.00;;;4.47;;
31298;SDS011;17927;52.350;13.402;2023-12-14T07:43:55;4.25;;;3.90;;
31298;SDS011;17927;52.350;13.402;2023-12-14T07:46:20;7.53;;;4.75;;
31298;SDS011;17927;52.350;13.402;2023-12-14T07:48:46;5.22;;;4.35;;
31298;SDS011;17927;52.350;13.402;2023-12-14T07:51:11;4.50;;;4.10;;
31298;SDS011;17927;52.350;13.402;2023-12-14T07:53:37;4.78;;;4.38;;
31298;SDS011;17927;52.350;13.402;2023-12-14T07:56:02;4.07;;;3.75;;
31298;SDS011;17927;52.350;13.402;2023-12-14T07:58:27;4.82;;;4.43;;
31298;SDS011;17927;52.350;13.402;2023-12-14T08:00:53;5.40;;;4.35;;
31298;SDS011;17927;52.350;13.402;2023-12-14T08:03:18;5.50;;;5.05;;
31298;SDS011;17927;52.350;13.402;2023-12-14T08:05:43;5.57;;;5.05;;
31298;SDS011;17927;52.350;13.402;2023-12-14T08:08:09;6.32;;;5.57;;
31298;SDS011;17927;52.350;13.402;2023-12-14T08:10:34;5.43;;;4.93;;
31298;SDS011;17927;52.350;13.402;2023-12-14T08:12:59;6.72;;;5.10;;
31298;SDS011;17927;52.350;13.402;2023-12-14T08:15:24;6.10;;;5.50;;
31298;SDS011;17927;52.350;13.402;2023-12-14T08:17:49;5.95;;;5.45;;
31298;SDS011;17927;52.350;13.402;2023-12-14T08:20:15;7.15;;;6.35;;
31298;SDS011;17927;52.350;13.402;2023-12-14T08:22:40;6.50;;;5.80;;
31298;SDS011;17927;52.350;13.402;2023-12-14T08:25:12;6.70;;;6.10;;
31298;SDS011;17927;52.350;13.402;2023-12-14T08:27:39;7.68;;;6.82;;
31298;SDS011;17927;52.350;13.402;2023-12-14T08:30:04;8.50;;;6.45;;
31298;SDS011;17927;52.350;13.402;2023-12-14T08:32:30;7.50;;;6.25;;
31298;SDS011;17927;52.350;13.402;2023-12-14T08:34:55;8.88;;;7.07;;
31298;SDS011;17927;52.350;13.402;2023-12-14T08:37:20;7.00;;;6.18;;
31298;SDS011;17927;52.350;13.402;2023-12-14T08:39:46;10.45;;;6.57;;
31298;SDS011;17927;52.350;13.402;2023-12-14T08:42:11;7.85;;;7.05;;
31298;SDS011;17927;52.350;13.402;2023-12-14T08:44:38;7.78;;;6.70;;
31298;SDS011;17927;52.350;13.402;2023-12-14T08:47:04;9.20;;;7.60;;
31298;SDS011;17927;52.350;13.402;2023-12-14T08:49:30;8.30;;;7.13;;
31298;SDS011;17927;52.350;13.402;2023-12-14T08:51:55;7.32;;;6.63;;
31298;SDS011;17927;52.350;13.402;2023-12-14T08:54:20;8.25;;;6.65;;
31298;SDS011;17927;52.350;13.402;2023-12-14T08:56:46;8.30;;;7.50;;
31298;SDS011;17927;52.350;13.402;2023-12-14T08:59:11;7.65;;;6.88;;
31298;SDS011;17927;52.350;13.402;2023-12-14T09:01:36;8.10;;;7.30;;
31298;SDS011;17927;52.350;13.402;2023-12-14T09:04:01;7.35;;;6.60;;
31298;SDS011;17927;52.350;13.402;2023-12-14T09:06:27;9.40;;;6.75;;
31298;SDS011;17927;52.350;13.402;2023-12-14T09:08:52;8.85;;;7.43;;
31298;SDS011;17927;52.350;13.402;2023-12-14T09:11:17;8.65;;;7.22;;
31298;SDS011;17927;52.350;13.402;2023-12-14T09:13:42;7.75;;;6.95;;
31298;SDS011;17927;52.350;13.402;2023-12-14T09:16:08;7.88;;;7.13;;
31298;SDS011;17927;52.350;13.402;2023-12-14T09:18:33;7.95;;;7.03;;
31298;SDS011;17927;52.350;13.402;2023-12-14T09:20:58;8.63;;;7.50;;
31298;SDS011;17927;52.350;13.402;2023-12-14T09:23:24;8.07;;;7.28;;
31298;SDS011;17927;52.350;13.402;2023-12-14T09:25:49;8.95;;;7.30;;
31298;SDS011;17927;52.350;13.402;2023-12-14T09:28:14;10.85;;;8.07;;
31298;SDS011;17927;52.350;13.402;2023-12-14T09:30:40;10.10;;;7.75;;
31298;SDS011;17927;52.350;13.402;2023-12-14T09:33:05;10.60;;;7.45;;
31298;SDS011;17927;52.350;13.402;2023-12-14T09:35:33;9.15;;;7.88;;
31298;SDS011;17927;52.350;13.402;2023-12-14T09:37:58;10.52;;;8.65;;
31298;SDS011;17927;52.350;13.402;2023-12-14T09:40:23;8.95;;;7.88;;
31298;SDS011;17927;52.350;13.402;2023-12-14T09:42:49;9.32;;;8.13;;
31298;SDS011;17927;52.350;13.402;2023-12-14T09:45:14;9.68;;;8.32;;
31298;SDS011;17927;52.350;13.402;2023-12-14T09:47:41;9.73;;;8.50;;
31298;SDS011;17927;52.350;13.402;2023-12-14T09:50:07;10.20;;;8.68;;
31298;SDS011;17927;52.350;13.402;2023-12-14T09:52:33;9.75;;;8.75;;
31298;SDS011;17927;52.350;13.402;2023-12-14T09:54:58;12.38;;;8.50;;
31298;SDS011;17927;52.350;13.402;2023-12-14T09:57:24;10.90;;;8.57;;
31298;SDS011;17927;52.350;13.402;2023-12-14T09:59:51;8.52;;;7.55;;
31298;SDS011;17927;52.350;13.402;2023-12-14T10:02:17;10.57;;;7.90;;
31298;SDS011;17927;52.350;13.402;2023-12-14T10:04:46;12.73;;;9.15;;
31298;SDS011;17927;52.350;13.402;2023-12-14T10:07:11;11.27;;;7.85;;
31298;SDS011;17927;52.350;13.402;2023-12-14T10:09:37;9.52;;;8.15;;
31298;SDS011;17927;52.350;13.402;2023-12-14T10:12:03;10.40;;;8.55;;
31298;SDS011;17927;52.350;13.402;2023-12-14T10:14:30;9.15;;;7.80;;
31298;SDS011;17927;52.350;13.402;2023-12-14T10:16:56;11.63;;;8.82;;
31298;SDS011;17927;52.350;13.402;2023-12-14T10:19:21;9.40;;;8.43;;
31298;SDS011;17927;52.350;13.402;2023-12-14T10:21:47;11.25;;;8.52;;
31298;SDS011;17927;52.350;13.402;2023-12-14T10:24:13;11.85;;;9.13;;
31298;SDS011;17927;52.350;13.402;2023-12-14T10:26:39;10.52;;;8.80;;
31298;SDS011;17927;52.350;13.402;2023-12-14T10:29:05;10.70;;;7.93;;
31298;SDS011;17927;52.350;13.402;2023-12-14T10:31:31;11.00;;;8.05;;
31298;SDS011;17927;52.350;13.402;2023-12-14T10:33:57;11.88;;;8.57;;
31298;SDS011;17927;52.350;13.402;2023-12-14T10:36:24;10.85;;;8.30;;
31298;SDS011;17927;52.350;13.402;2023-12-14T10:38:52;8.82;;;7.75;;
31298;SDS011;17927;52.350;13.402;2023-12-14T10:41:18;10.73;;;8.43;;
31298;SDS011;17927;52.350;13.402;2023-12-14T10:43:45;9.15;;;7.15;;
31298;SDS011;17927;52.350;13.402;2023-12-14T10:46:12;12.35;;;8.40;;
31298;SDS011;17927;52.350;13.402;2023-12-14T10:48:39;10.65;;;8.68;;
31298;SDS011;17927;52.350;13.402;2023-12-14T10:51:07;9.30;;;7.47;;
31298;SDS011;17927;52.350;13.402;2023-12-14T10:53:33;11.07;;;7.88;;
31298;SDS011;17927;52.350;13.402;2023-12-14T10:56:00;9.60;;;7.38;;
31298;SDS011;17927;52.350;13.402;2023-12-14T10:58:44;9.18;;;6.65;;
31298;SDS011;17927;52.350;13.402;2023-12-14T11:01:20;8.25;;;7.38;;
31298;SDS011;17927;52.350;13.402;2023-12-14T11:03:47;7.57;;;6.72;;
31298;SDS011;17927;52.350;13.402;2023-12-14T11:06:20;8.43;;;6.82;;
31298;SDS011;17927;52.350;13.402;2023-12-14T11:08:47;6.85;;;6.15;;
31298;SDS011;17927;52.350;13.402;2023-12-14T11:11:12;6.82;;;6.22;;
31298;SDS011;17927;52.350;13.402;2023-12-14T11:13:45;8.98;;;7.13;;
31298;SDS011;17927;52.350;13.402;2023-12-14T11:16:11;7.25;;;6.55;;
31298;SDS011;17927;52.350;13.402;2023-12-14T11:18:36;9.52;;;7.50;;
31298;SDS011;17927;52.350;13.402;2023-12-14T11:21:01;8.55;;;6.90;;
31298;SDS011;17927;52.350;13.402;2023-12-14T11:23:28;6.57;;;5.97;;
31298;SDS011;17927;52.350;13.402;2023-12-14T11:25:59;7.32;;;6.50;;
31298;SDS011;17927;52.350;13.402;2023-12-14T11:28:28;6.60;;;6.00;;
31298;SDS011;17927;52.350;13.402;2023-12-14T11:30:55;7.88;;;7.05;;
31298;SDS011;17927;52.350;13.402;2023-12-14T11:33:20;7.07;;;6.38;;
31298;SDS011;17927;52.350;13.402;2023-12-14T11:35:46;7.90;;;7.05;;
31298;SDS011;17927;52.350;13.402;2023-12-14T11:38:11;7.93;;;6.65;;
31298;SDS011;17927;52.350;13.402;2023-12-14T11:40:38;7.30;;;6.47;;
31298;SDS011;17927;52.350;13.402;2023-12-14T11:43:07;8.60;;;7.75;;
31298;SDS011;17927;52.350;13.402;2023-12-14T11:45:33;9.45;;;7.95;;
31298;SDS011;17927;52.350;13.402;2023-12-14T11:47:59;8.57;;;7.78;;
31298;SDS011;17927;52.350;13.402;2023-12-14T11:50:24;9.02;;;7.07;;
31298;SDS011;17927;52.350;13.402;2023-12-14T11:52:51;9.43;;;7.60;;
31298;SDS011;17927;52.350;13.402;2023-12-14T11:55:18;9.52;;;7.68;;
31298;SDS011;17927;52.350;13.402;2023-12-14T11:57:46;9.05;;;7.70;;
31298;SDS011;17927;52.350;13.402;2023-12-14T12:00:13;9.30;;;7.53;;
31298;SDS011;17927;52.350;13.402;2023-12-14T12:02:39;8.57;;;7.78;;
31298;SDS011;17927;52.350;13.402;2023-12-14T12:05:05;9.20;;;8.25;;
31298;SDS011;17927;52.350;13.402;2023-12-14T12:07:31;9.35;;;7.80;;
31298;SDS011;17927;52.350;13.402;2023-12-14T12:09:57;9.68;;;7.95;;
31298;SDS011;17927;52.350;13.402;2023-12-14T12:12:23;8.60;;;7.70;;
31298;SDS011;17927;52.350;13.402;2023-12-14T12:14:48;8.68;;;7.68;;
31298;SDS011;17927;52.350;13.402;2023-12-14T12:17:17;9.23;;;7.85;;
31298;SDS011;17927;52.350;13.402;2023-12-14T12:19:44;9.43;;;7.75;;
31298;SDS011;17927;52.350;13.402;2023-12-14T12:22:09;9.50;;;7.50;;
31298;SDS011;17927;52.350;13.402;2023-12-14T12:24:35;10.27;;;8.80;;
31298;SDS011;17927;52.350;13.402;2023-12-14T12:27:00;8.50;;;7.57;;
31298;SDS011;17927;52.350;13.402;2023-12-14T12:29:25;8.15;;;7.30;;
31298;SDS011;17927;52.350;13.402;2023-12-14T12:31:51;9.38;;;8.07;;
31298;SDS011;17927;52.350;13.402;2023-12-14T12:34:16;8.90;;;8.00;;
31298;SDS011;17927;52.350;13.402;2023-12-14T12:36:42;8.30;;;7.50;;
31298;SDS011;17927;52.350;13.402;2023-12-14T12:39:07;10.65;;;7.85;;
31298;SDS011;17927;52.350;13.402;2023-12-14T12:41:33;10.95;;;8.77;;
31298;SDS011;17927;52.350;13.402;2023-12-14T12:43:59;10.10;;;8.63;;
31298;SDS011;17927;52.350;13.402;2023-12-14T12:46:30;11.60;;;8.80;;
31298;SDS011;17927;52.350;13.402;2023-12-14T12:49:06;11.55;;;9.48;;
31298;SDS011;17927;52.350;13.402;2023-12-14T12:51:32;12.18;;;9.65;;
31298;SDS011;17927;52.350;13.402;2023-12-14T12:53:57;13.05;;;10.07;;
31298;SDS011;17927;52.350;13.402;2023-12-14T12:56:23;12.57;;;10.55;;
31298;SDS011;17927;52.350;13.402;2023-12-14T12:58:49;15.38;;;11.02;;
31298;SDS011;17927;52.350;13.402;2023-12-14T13:01:17;11.00;;;9.90;;
31298;SDS011;17927;52.350;13.402;2023-12-14T13:03:42;13.02;;;10.38;;
31298;SDS011;17927;52.350;13.402;2023-12-14T13:06:07;12.55;;;9.98;;
31298;SDS011;17927;52.350;13.402;2023-12-14T13:08:32;11.55;;;10.35;;
31298;SDS011;17927;52.350;13.402;2023-12-14T13:10:58;15.52;;;10.20;;
31298;SDS011;17927;52.350;13.402;2023-12-14T13:13:23;16.63;;;10.63;;
31298;SDS011;17927;52.350;13.402;2023-12-14T13:15:48;12.82;;;10.45;;
31298;SDS011;17927;52.350;13.402;2023-12-14T13:18:13;13.13;;;10.88;;
31298;SDS011;17927;52.350;13.402;2023-12-14T13:20:41;13.98;;;11.10;;
31298;SDS011;17927;52.350;13.402;2023-12-14T13:23:06;11.75;;;9.32;;
31298;SDS011;17927;52.350;13.402;2023-12-14T13:25:32;13.27;;;10.50;;
31298;SDS011;17927;52.350;13.402;2023-12-14T13:27:57;12.25;;;9.18;;
31298;SDS011;17927;52.350;13.402;2023-12-14T13:30:22;13.65;;;10.35;;
31298;SDS011;17927;52.350;13.402;2023-12-14T13:32:47;12.70;;;10.20;;
31298;SDS011;17927;52.350;13.402;2023-12-14T13:35:13;11.35;;;10.00;;
31298;SDS011;17927;52.350;13.402;2023-12-14T13:37:38;14.55;;;11.13;;
31298;SDS011;17927;52.350;13.402;2023-12-14T13:40:04;12.85;;;9.95;;
31298;SDS011;17927;52.350;13.402;2023-12-14T13:42:30;12.23;;;10.15;;
31298;SDS011;17927;52.350;13.402;2023-12-14T13:44:55;12.77;;;9.70;;
31298;SDS011;17927;52.350;13.402;2023-12-14T13:47:20;11.40;;;9.85;;
31298;SDS011;17927;52.350;13.402;2023-12-14T13:49:45;13.07;;;10.20;;
31298;SDS011;17927;52.350;13.402;2023-12-14T13:52:11;10.90;;;9.23;;
31298;SDS011;17927;52.350;13.402;2023-12-14T13:54:36;13.18;;;9.98;;
31298;SDS011;17927;52.350;13.402;2023-12-14T13:57:02;12.38;;;10.48;;
31298;SDS011;17927;52.350;13.402;2023-12-14T13:59:27;11.63;;;9.85;;
31298;SDS011;17927;52.350;13.402;2023-12-14T14:01:52;13.35;;;10.05;;
31298;SDS011;17927;52.350;13.402;2023-12-14T14:04:18;11.80;;;9.50;;
31298;SDS011;17927;52.350;13.402;2023-12-14T14:06:43;12.75;;;10.02;;
31298;SDS011;17927;52.350;13.402;2023-12-14T14:09:08;15.00;;;10.25;;
31298;SDS011;17927;52.350;13.402;2023-12-14T14:11:34;14.43;;;10.48;;
31298;SDS011;17927;52.350;13.402;2023-12-14T14:14:00;14.43;;;10.10;;
31298;SDS011;17927;52.350;13.402;2023-12-14T14:16:25;10.05;;;8.98;;
31298;SDS011;17927;52.350;13.402;2023-12-14T14:18:50;13.93;;;10.80;;
31298;SDS011;17927;52.350;13.402;2023-12-14T14:21:16;11.77;;;9.50;;